Honolulu, HI

4:25 PM HST on November 22, 2014 (GMT -1000)
Upper West Manoa | Change Station
CLOSE
Current Station
Personal Weather Station
Location: Honolulu, HI
Elevation: 390 ft
Nearby Weather Stations

Elev 390 ft 21.33 °N, 157.80 °W | Updated 12 minutes ago

Scattered Clouds
Scattered Clouds
82.2 °F
Feels Like 86 °F
N
0.0
Wind Variable Wind from SSE
Gusts 5.0 mph

Today
High -- | Low -- °F
--% Chance of Precip.
Yesterday
High -- | Low -- °F
Precip. -- in
6:46 AM 5:48 PM
New Moon, 0% visible
Pressure 29.98 in
Visibility 10.0 miles
Clouds Few 2700 ft
Scattered Clouds 4100 ft
Scattered Clouds 5500 ft
Heat Index 86 °F
Dew Point 70 °F
Humidity 67%
Rainfall 0.00 in
Snow Depth Not available.
UV 1 out of 12
Pollen Not available.
Air Quality Not available.
Flu Activity Not available.
METAR PHNL 230153Z 07006KT 10SM FEW027 SCT041 SCT055 29/19 A2998 RMK AO2 SLP150 VCSH NE-E SHRA DSNT NW T02890189

More Conditions Fewer Conditions

Pressure 29.98 in
Visibility 10.0 miles
Clouds Few 2700 ft
Scattered Clouds 4100 ft
Scattered Clouds 5500 ft
Heat Index 86 °F
Dew Point 70 °F
Humidity 67%
Rainfall 0.00 in
Snow Depth Not available.
UV 1 out of 12
Pollen Not available.
Air Quality Not available.
Flu Activity Not available.
METAR PHNL 230153Z 07006KT 10SM FEW027 SCT041 SCT055 29/19 A2998 RMK AO2 SLP150 VCSH NE-E SHRA DSNT NW T02890189

More Conditions Fewer Conditions

10-Day Weather Forecast

Almanac

Astronomy

Nov. 22, 2014 Rise Set
Actual Time
Civil Twilight
Nautical Twilight
Astronomical Twilight
Moon
Length of Visible Light
Length of Day
Tomorrow will be .
, % of the Moon is Illuminated

Today's Extremes

State Highs State Lows

Community

WunderPhotos

Upload Photos

1,772,973 photos uploaded!

WunderBlogs® & News

Nearby

Air Quality

  Air Quality AQ Index Pollutant
Not available.

Snow Depth

Station Depth Elevation

Earthquake Activity

City Distance Mag. Time & Date
Minimum magnitude displayed is 2.5.

Coastal Water Temperatures

Place Temperature

Nearby Weather Stations